sensor_id;sensor_type;location;lat;lon;timestamp;P1;durP1;ratioP1;P2;durP2;ratioP2
23702;SDS011;12030;50.376;8.762;2022-08-19T00:00:15;12.87;;;10.43;;
23702;SDS011;12030;50.376;8.762;2022-08-19T00:02:41;13.37;;;10.53;;
23702;SDS011;12030;50.376;8.762;2022-08-19T00:05:08;14.67;;;10.60;;
23702;SDS011;12030;50.376;8.762;2022-08-19T00:07:35;13.37;;;10.20;;
23702;SDS011;12030;50.376;8.762;2022-08-19T00:10:02;12.87;;;10.63;;
23702;SDS011;12030;50.376;8.762;2022-08-19T00:12:29;13.83;;;11.30;;
23702;SDS011;12030;50.376;8.762;2022-08-19T00:14:55;14.17;;;10.43;;
23702;SDS011;12030;50.376;8.762;2022-08-19T00:17:20;15.47;;;11.63;;
23702;SDS011;12030;50.376;8.762;2022-08-19T00:19:46;13.93;;;11.40;;
23702;SDS011;12030;50.376;8.762;2022-08-19T00:22:11;13.10;;;10.50;;
23702;SDS011;12030;50.376;8.762;2022-08-19T00:24:37;14.30;;;10.97;;
23702;SDS011;12030;50.376;8.762;2022-08-19T00:27:03;15.00;;;11.57;;
23702;SDS011;12030;50.376;8.762;2022-08-19T00:29:30;16.60;;;11.67;;
23702;SDS011;12030;50.376;8.762;2022-08-19T00:31:56;13.77;;;11.23;;
23702;SDS011;12030;50.376;8.762;2022-08-19T00:34:23;13.67;;;11.03;;
23702;SDS011;12030;50.376;8.762;2022-08-19T00:36:51;14.17;;;11.23;;
23702;SDS011;12030;50.376;8.762;2022-08-19T00:39:17;15.23;;;10.87;;
23702;SDS011;12030;50.376;8.762;2022-08-19T00:41:43;11.67;;;10.17;;
23702;SDS011;12030;50.376;8.762;2022-08-19T00:44:12;13.23;;;11.17;;
23702;SDS011;12030;50.376;8.762;2022-08-19T00:46:41;16.33;;;10.50;;
23702;SDS011;12030;50.376;8.762;2022-08-19T00:49:12;12.40;;;10.97;;
23702;SDS011;12030;50.376;8.762;2022-08-19T00:51:42;10.93;;;9.63;;
23702;SDS011;12030;50.376;8.762;2022-08-19T00:54:11;14.23;;;11.07;;
23702;SDS011;12030;50.376;8.762;2022-08-19T00:56:37;12.87;;;10.83;;
23702;SDS011;12030;50.376;8.762;2022-08-19T00:59:03;15.10;;;11.23;;
23702;SDS011;12030;50.376;8.762;2022-08-19T01:01:37;14.33;;;11.20;;
23702;SDS011;12030;50.376;8.762;2022-08-19T01:04:04;12.13;;;10.43;;
23702;SDS011;12030;50.376;8.762;2022-08-19T01:06:30;11.33;;;10.13;;
23702;SDS011;12030;50.376;8.762;2022-08-19T01:08:57;13.47;;;11.23;;
23702;SDS011;12030;50.376;8.762;2022-08-19T01:11:23;14.33;;;10.83;;
23702;SDS011;12030;50.376;8.762;2022-08-19T01:13:49;11.73;;;10.27;;
23702;SDS011;12030;50.376;8.762;2022-08-19T01:16:18;11.90;;;10.03;;
23702;SDS011;12030;50.376;8.762;2022-08-19T01:18:45;13.10;;;9.70;;
23702;SDS011;12030;50.376;8.762;2022-08-19T01:23:57;13.10;;;9.70;;
23702;SDS011;12030;50.376;8.762;2022-08-19T01:26:24;11.40;;;10.13;;
23702;SDS011;12030;50.376;8.762;2022-08-19T01:28:50;12.23;;;9.67;;
23702;SDS011;12030;50.376;8.762;2022-08-19T01:31:19;12.17;;;10.10;;
23702;SDS011;12030;50.376;8.762;2022-08-19T01:33:47;12.23;;;9.60;;
23702;SDS011;12030;50.376;8.762;2022-08-19T01:36:16;12.63;;;9.07;;
23702;SDS011;12030;50.376;8.762;2022-08-19T01:38:49;11.83;;;9.27;;
23702;SDS011;12030;50.376;8.762;2022-08-19T01:41:14;10.40;;;9.10;;
23702;SDS011;12030;50.376;8.762;2022-08-19T01:43:43;12.43;;;9.10;;
23702;SDS011;12030;50.376;8.762;2022-08-19T01:46:09;12.47;;;9.63;;
23702;SDS011;12030;50.376;8.762;2022-08-19T01:48:36;12.27;;;9.40;;
23702;SDS011;12030;50.376;8.762;2022-08-19T01:51:04;11.37;;;8.80;;
23702;SDS011;12030;50.376;8.762;2022-08-19T01:53:30;11.67;;;8.93;;
23702;SDS011;12030;50.376;8.762;2022-08-19T01:55:56;10.00;;;8.70;;
23702;SDS011;12030;50.376;8.762;2022-08-19T01:58:23;12.67;;;8.73;;
23702;SDS011;12030;50.376;8.762;2022-08-19T02:00:55;9.67;;;8.63;;
23702;SDS011;12030;50.376;8.762;2022-08-19T02:03:21;11.10;;;9.20;;
23702;SDS011;12030;50.376;8.762;2022-08-19T02:05:47;9.00;;;8.07;;
23702;SDS011;12030;50.376;8.762;2022-08-19T02:08:20;11.90;;;9.03;;
23702;SDS011;12030;50.376;8.762;2022-08-19T02:10:46;12.00;;;9.03;;
23702;SDS011;12030;50.376;8.762;2022-08-19T02:13:12;10.23;;;8.80;;
23702;SDS011;12030;50.376;8.762;2022-08-19T02:15:38;10.13;;;8.93;;
23702;SDS011;12030;50.376;8.762;2022-08-19T02:18:05;11.90;;;8.63;;
23702;SDS011;12030;50.376;8.762;2022-08-19T02:20:32;9.70;;;7.97;;
23702;SDS011;12030;50.376;8.762;2022-08-19T02:22:58;11.70;;;8.10;;
23702;SDS011;12030;50.376;8.762;2022-08-19T02:25:26;9.97;;;7.80;;
23702;SDS011;12030;50.376;8.762;2022-08-19T02:27:52;9.90;;;8.87;;
23702;SDS011;12030;50.376;8.762;2022-08-19T02:30:19;11.20;;;8.43;;
23702;SDS011;12030;50.376;8.762;2022-08-19T02:32:45;9.80;;;8.80;;
23702;SDS011;12030;50.376;8.762;2022-08-19T02:35:12;10.07;;;8.63;;
23702;SDS011;12030;50.376;8.762;2022-08-19T02:37:39;10.53;;;8.63;;
23702;SDS011;12030;50.376;8.762;2022-08-19T02:40:24;9.67;;;8.03;;
23702;SDS011;12030;50.376;8.762;2022-08-19T02:42:49;9.00;;;8.00;;
23702;SDS011;12030;50.376;8.762;2022-08-19T02:45:15;9.83;;;8.10;;
23702;SDS011;12030;50.376;8.762;2022-08-19T02:47:41;9.17;;;7.87;;
23702;SDS011;12030;50.376;8.762;2022-08-19T02:50:06;10.57;;;8.03;;
23702;SDS011;12030;50.376;8.762;2022-08-19T02:52:33;10.73;;;8.60;;
23702;SDS011;12030;50.376;8.762;2022-08-19T02:54:59;12.50;;;8.27;;
23702;SDS011;12030;50.376;8.762;2022-08-19T02:57:25;9.53;;;8.50;;
23702;SDS011;12030;50.376;8.762;2022-08-19T02:59:51;10.20;;;8.97;;
23702;SDS011;12030;50.376;8.762;2022-08-19T03:02:17;9.80;;;7.90;;
23702;SDS011;12030;50.376;8.762;2022-08-19T03:04:43;11.00;;;8.17;;
23702;SDS011;12030;50.376;8.762;2022-08-19T03:07:09;10.50;;;7.80;;
23702;SDS011;12030;50.376;8.762;2022-08-19T03:09:38;10.43;;;8.00;;
23702;SDS011;12030;50.376;8.762;2022-08-19T03:12:04;8.90;;;8.00;;
23702;SDS011;12030;50.376;8.762;2022-08-19T03:14:30;11.43;;;9.00;;
23702;SDS011;12030;50.376;8.762;2022-08-19T03:16:56;9.03;;;8.07;;
23702;SDS011;12030;50.376;8.762;2022-08-19T03:19:22;12.03;;;9.07;;
23702;SDS011;12030;50.376;8.762;2022-08-19T03:21:48;12.27;;;8.37;;
23702;SDS011;12030;50.376;8.762;2022-08-19T03:24:15;9.57;;;8.57;;
23702;SDS011;12030;50.376;8.762;2022-08-19T03:26:43;9.40;;;8.40;;
23702;SDS011;12030;50.376;8.762;2022-08-19T03:29:12;10.57;;;8.27;;
23702;SDS011;12030;50.376;8.762;2022-08-19T03:31:38;9.63;;;8.40;;
23702;SDS011;12030;50.376;8.762;2022-08-19T03:34:05;8.73;;;7.83;;
23702;SDS011;12030;50.376;8.762;2022-08-19T03:36:31;10.47;;;8.57;;
23702;SDS011;12030;50.376;8.762;2022-08-19T03:38:58;10.77;;;8.53;;
23702;SDS011;12030;50.376;8.762;2022-08-19T03:41:26;9.20;;;7.83;;
23702;SDS011;12030;50.376;8.762;2022-08-19T03:43:54;9.47;;;7.90;;
23702;SDS011;12030;50.376;8.762;2022-08-19T03:46:21;10.37;;;8.03;;
23702;SDS011;12030;50.376;8.762;2022-08-19T03:48:50;9.23;;;8.23;;
23702;SDS011;12030;50.376;8.762;2022-08-19T03:51:40;9.93;;;8.03;;
23702;SDS011;12030;50.376;8.762;2022-08-19T03:54:06;10.10;;;8.43;;
23702;SDS011;12030;50.376;8.762;2022-08-19T03:56:34;12.60;;;8.87;;
23702;SDS011;12030;50.376;8.762;2022-08-19T03:59:03;10.13;;;8.53;;
23702;SDS011;12030;50.376;8.762;2022-08-19T04:01:29;9.47;;;8.40;;
23702;SDS011;12030;50.376;8.762;2022-08-19T04:03:56;10.63;;;8.63;;
23702;SDS011;12030;50.376;8.762;2022-08-19T04:06:29;10.90;;;9.13;;
23702;SDS011;12030;50.376;8.762;2022-08-19T04:08:57;13.07;;;8.30;;
23702;SDS011;12030;50.376;8.762;2022-08-19T04:11:26;10.87;;;8.03;;
23702;SDS011;12030;50.376;8.762;2022-08-19T04:13:55;10.63;;;8.60;;
23702;SDS011;12030;50.376;8.762;2022-08-19T04:16:22;10.57;;;8.17;;
23702;SDS011;12030;50.376;8.762;2022-08-19T04:18:49;10.40;;;9.00;;
23702;SDS011;12030;50.376;8.762;2022-08-19T04:21:20;9.83;;;8.77;;
23702;SDS011;12030;50.376;8.762;2022-08-19T04:23:47;10.60;;;9.50;;
23702;SDS011;12030;50.376;8.762;2022-08-19T04:26:13;10.23;;;9.07;;
23702;SDS011;12030;50.376;8.762;2022-08-19T04:28:42;13.57;;;9.37;;
23702;SDS011;12030;50.376;8.762;2022-08-19T04:31:12;12.03;;;9.50;;
23702;SDS011;12030;50.376;8.762;2022-08-19T04:33:43;12.30;;;9.60;;
23702;SDS011;12030;50.376;8.762;2022-08-19T04:36:15;12.97;;;9.23;;
23702;SDS011;12030;50.376;8.762;2022-08-19T04:38:42;13.03;;;9.33;;
23702;SDS011;12030;50.376;8.762;2022-08-19T04:41:08;11.60;;;9.30;;
23702;SDS011;12030;50.376;8.762;2022-08-19T04:43:52;12.47;;;9.50;;
23702;SDS011;12030;50.376;8.762;2022-08-19T04:46:17;11.00;;;8.87;;
23702;SDS011;12030;50.376;8.762;2022-08-19T04:48:44;12.77;;;9.43;;
23702;SDS011;12030;50.376;8.762;2022-08-19T04:51:11;12.57;;;9.57;;
23702;SDS011;12030;50.376;8.762;2022-08-19T04:53:38;13.43;;;9.13;;
23702;SDS011;12030;50.376;8.762;2022-08-19T04:56:13;9.90;;;8.90;;
23702;SDS011;12030;50.376;8.762;2022-08-19T04:58:41;11.73;;;9.13;;
23702;SDS011;12030;50.376;8.762;2022-08-19T05:01:08;11.10;;;9.47;;
23702;SDS011;12030;50.376;8.762;2022-08-19T05:03:38;11.27;;;8.73;;
23702;SDS011;12030;50.376;8.762;2022-08-19T05:06:05;13.83;;;9.07;;
23702;SDS011;12030;50.376;8.762;2022-08-19T05:08:36;10.33;;;9.13;;
23702;SDS011;12030;50.376;8.762;2022-08-19T05:11:07;10.27;;;8.90;;
23702;SDS011;12030;50.376;8.762;2022-08-19T05:13:47;12.47;;;9.27;;
23702;SDS011;12030;50.376;8.762;2022-08-19T05:16:14;8.80;;;7.87;;
23702;SDS011;12030;50.376;8.762;2022-08-19T05:18:41;15.53;;;9.77;;
23702;SDS011;12030;50.376;8.762;2022-08-19T05:21:26;14.40;;;9.90;;
23702;SDS011;12030;50.376;8.762;2022-08-19T05:24:11;11.17;;;9.37;;
23702;SDS011;12030;50.376;8.762;2022-08-19T05:26:39;10.63;;;9.53;;
23702;SDS011;12030;50.376;8.762;2022-08-19T05:29:07;11.73;;;8.90;;
23702;SDS011;12030;50.376;8.762;2022-08-19T05:31:33;12.70;;;9.07;;
23702;SDS011;12030;50.376;8.762;2022-08-19T05:34:00;14.00;;;9.13;;
23702;SDS011;12030;50.376;8.762;2022-08-19T05:36:27;9.53;;;7.53;;
23702;SDS011;12030;50.376;8.762;2022-08-19T05:38:54;10.47;;;9.20;;
23702;SDS011;12030;50.376;8.762;2022-08-19T05:41:20;12.33;;;7.83;;
23702;SDS011;12030;50.376;8.762;2022-08-19T05:43:58;12.77;;;7.77;;
23702;SDS011;12030;50.376;8.762;2022-08-19T05:46:27;10.97;;;8.63;;
23702;SDS011;12030;50.376;8.762;2022-08-19T05:48:53;9.30;;;8.23;;
23702;SDS011;12030;50.376;8.762;2022-08-19T05:51:21;8.57;;;7.33;;
23702;SDS011;12030;50.376;8.762;2022-08-19T05:53:47;9.53;;;8.30;;
23702;SDS011;12030;50.376;8.762;2022-08-19T05:56:14;9.30;;;8.10;;
23702;SDS011;12030;50.376;8.762;2022-08-19T05:58:41;11.27;;;8.07;;
23702;SDS011;12030;50.376;8.762;2022-08-19T06:01:14;9.23;;;8.07;;
23702;SDS011;12030;50.376;8.762;2022-08-19T06:03:42;8.53;;;7.47;;
23702;SDS011;12030;50.376;8.762;2022-08-19T06:06:09;9.40;;;7.57;;
23702;SDS011;12030;50.376;8.762;2022-08-19T06:08:36;9.87;;;7.73;;
23702;SDS011;12030;50.376;8.762;2022-08-19T06:11:20;8.00;;;7.20;;
23702;SDS011;12030;50.376;8.762;2022-08-19T06:13:48;8.80;;;6.63;;
23702;SDS011;12030;50.376;8.762;2022-08-19T06:16:21;9.47;;;7.50;;
23702;SDS011;12030;50.376;8.762;2022-08-19T06:18:47;11.90;;;7.07;;
23702;SDS011;12030;50.376;8.762;2022-08-19T06:21:16;9.57;;;6.27;;
23702;SDS011;12030;50.376;8.762;2022-08-19T06:23:43;7.40;;;5.67;;
23702;SDS011;12030;50.376;8.762;2022-08-19T06:26:11;6.60;;;5.90;;
23702;SDS011;12030;50.376;8.762;2022-08-19T06:28:37;6.50;;;4.83;;
23702;SDS011;12030;50.376;8.762;2022-08-19T06:31:07;5.43;;;4.83;;
23702;SDS011;12030;50.376;8.762;2022-08-19T06:33:33;6.70;;;5.00;;
23702;SDS011;12030;50.376;8.762;2022-08-19T06:35:59;5.50;;;4.80;;
23702;SDS011;12030;50.376;8.762;2022-08-19T06:38:24;6.77;;;5.07;;
23702;SDS011;12030;50.376;8.762;2022-08-19T06:40:50;10.57;;;4.87;;
23702;SDS011;12030;50.376;8.762;2022-08-19T06:43:15;6.57;;;4.93;;
23702;SDS011;12030;50.376;8.762;2022-08-19T06:45:41;9.60;;;4.63;;
23702;SDS011;12030;50.376;8.762;2022-08-19T06:48:07;6.43;;;4.70;;
23702;SDS011;12030;50.376;8.762;2022-08-19T06:50:32;5.67;;;4.27;;
23702;SDS011;12030;50.376;8.762;2022-08-19T06:52:58;6.97;;;4.40;;
23702;SDS011;12030;50.376;8.762;2022-08-19T06:55:23;4.80;;;4.40;;
23702;SDS011;12030;50.376;8.762;2022-08-19T06:57:49;5.10;;;4.27;;
23702;SDS011;12030;50.376;8.762;2022-08-19T07:00:18;6.67;;;4.17;;
23702;SDS011;12030;50.376;8.762;2022-08-19T07:02:44;7.77;;;4.07;;
23702;SDS011;12030;50.376;8.762;2022-08-19T07:05:09;5.83;;;4.13;;
23702;SDS011;12030;50.376;8.762;2022-08-19T07:07:35;5.47;;;4.47;;
23702;SDS011;12030;50.376;8.762;2022-08-19T07:10:00;4.90;;;3.97;;
23702;SDS011;12030;50.376;8.762;2022-08-19T07:12:28;6.90;;;4.23;;
23702;SDS011;12030;50.376;8.762;2022-08-19T07:14:57;6.63;;;4.37;;
23702;SDS011;12030;50.376;8.762;2022-08-19T07:17:23;4.20;;;3.80;;
23702;SDS011;12030;50.376;8.762;2022-08-19T07:19:48;6.70;;;3.97;;
23702;SDS011;12030;50.376;8.762;2022-08-19T07:22:15;4.43;;;3.37;;
23702;SDS011;12030;50.376;8.762;2022-08-19T07:24:40;5.00;;;3.23;;
23702;SDS011;12030;50.376;8.762;2022-08-19T07:27:06;4.43;;;3.30;;
23702;SDS011;12030;50.376;8.762;2022-08-19T07:29:33;4.50;;;3.43;;
23702;SDS011;12030;50.376;8.762;2022-08-19T07:32:00;5.43;;;3.20;;
23702;SDS011;12030;50.376;8.762;2022-08-19T07:34:27;3.17;;;2.90;;
23702;SDS011;12030;50.376;8.762;2022-08-19T07:36:55;4.57;;;3.57;;
23702;SDS011;12030;50.376;8.762;2022-08-19T07:39:22;3.40;;;2.93;;
23702;SDS011;12030;50.376;8.762;2022-08-19T07:41:50;3.77;;;3.10;;
23702;SDS011;12030;50.376;8.762;2022-08-19T07:44:15;6.37;;;3.13;;
23702;SDS011;12030;50.376;8.762;2022-08-19T07:46:43;4.37;;;3.07;;
23702;SDS011;12030;50.376;8.762;2022-08-19T07:49:10;4.50;;;3.10;;
23702;SDS011;12030;50.376;8.762;2022-08-19T07:51:42;4.37;;;3.23;;
23702;SDS011;12030;50.376;8.762;2022-08-19T07:54:08;3.83;;;3.07;;
23702;SDS011;12030;50.376;8.762;2022-08-19T07:56:34;5.07;;;2.93;;
23702;SDS011;12030;50.376;8.762;2022-08-19T07:59:00;4.53;;;2.60;;
23702;SDS011;12030;50.376;8.762;2022-08-19T08:01:26;5.47;;;3.00;;
23702;SDS011;12030;50.376;8.762;2022-08-19T08:03:53;4.03;;;2.70;;
23702;SDS011;12030;50.376;8.762;2022-08-19T08:06:38;6.17;;;3.10;;
23702;SDS011;12030;50.376;8.762;2022-08-19T08:09:34;2.97;;;2.67;;
23702;SDS011;12030;50.376;8.762;2022-08-19T08:12:03;3.53;;;3.10;;
23702;SDS011;12030;50.376;8.762;2022-08-19T08:17:10;3.23;;;2.70;;
23702;SDS011;12030;50.376;8.762;2022-08-19T08:19:36;4.53;;;3.00;;
23702;SDS011;12030;50.376;8.762;2022-08-19T08:22:03;4.20;;;3.30;;
23702;SDS011;12030;50.376;8.762;2022-08-19T08:24:31;6.80;;;2.93;;
23702;SDS011;12030;50.376;8.762;2022-08-19T08:26:57;3.87;;;3.03;;
23702;SDS011;12030;50.376;8.762;2022-08-19T08:29:27;4.07;;;3.17;;
23702;SDS011;12030;50.376;8.762;2022-08-19T08:31:55;4.97;;;3.40;;
23702;SDS011;12030;50.376;8.762;2022-08-19T08:34:21;4.43;;;2.87;;
23702;SDS011;12030;50.376;8.762;2022-08-19T08:36:47;4.77;;;3.43;;
23702;SDS011;12030;50.376;8.762;2022-08-19T08:39:14;5.37;;;2.97;;
23702;SDS011;12030;50.376;8.762;2022-08-19T08:44:18;6.20;;;3.17;;
23702;SDS011;12030;50.376;8.762;2022-08-19T08:46:48;4.23;;;3.43;;
23702;SDS011;12030;50.376;8.762;2022-08-19T08:49:20;3.47;;;2.90;;
23702;SDS011;12030;50.376;8.762;2022-08-19T08:51:57;5.00;;;3.00;;
23702;SDS011;12030;50.376;8.762;2022-08-19T08:54:38;5.53;;;3.47;;
23702;SDS011;12030;50.376;8.762;2022-08-19T08:57:14;4.13;;;3.33;;
23702;SDS011;12030;50.376;8.762;2022-08-19T08:59:51;3.73;;;2.77;;
23702;SDS011;12030;50.376;8.762;2022-08-19T09:02:19;5.30;;;2.70;;
23702;SDS011;12030;50.376;8.762;2022-08-19T09:04:45;3.70;;;2.70;;
23702;SDS011;12030;50.376;8.762;2022-08-19T09:09:50;5.43;;;3.10;;
23702;SDS011;12030;50.376;8.762;2022-08-19T09:12:35;4.80;;;2.87;;
23702;SDS011;12030;50.376;8.762;2022-08-19T09:15:28;3.30;;;3.00;;
23702;SDS011;12030;50.376;8.762;2022-08-19T09:18:01;5.03;;;3.10;;
23702;SDS011;12030;50.376;8.762;2022-08-19T09:20:28;4.50;;;3.40;;
23702;SDS011;12030;50.376;8.762;2022-08-19T09:22:56;4.00;;;3.00;;
23702;SDS011;12030;50.376;8.762;2022-08-19T09:25:22;4.50;;;2.90;;
23702;SDS011;12030;50.376;8.762;2022-08-19T09:27:48;4.60;;;3.40;;
23702;SDS011;12030;50.376;8.762;2022-08-19T09:30:19;3.00;;;2.80;;
23702;SDS011;12030;50.376;8.762;2022-08-19T09:32:47;3.90;;;3.50;;
23702;SDS011;12030;50.376;8.762;2022-08-19T09:35:13;5.93;;;3.40;;
23702;SDS011;12030;50.376;8.762;2022-08-19T09:37:40;4.27;;;2.87;;
23702;SDS011;12030;50.376;8.762;2022-08-19T09:40:08;3.27;;;2.50;;
23702;SDS011;12030;50.376;8.762;2022-08-19T09:42:34;5.33;;;3.00;;
23702;SDS011;12030;50.376;8.762;2022-08-19T09:44:59;2.60;;;2.40;;
23702;SDS011;12030;50.376;8.762;2022-08-19T09:47:25;3.03;;;2.73;;
23702;SDS011;12030;50.376;8.762;2022-08-19T09:49:51;3.37;;;2.53;;
23702;SDS011;12030;50.376;8.762;2022-08-19T09:52:16;3.73;;;2.63;;
23702;SDS011;12030;50.376;8.762;2022-08-19T09:54:42;5.23;;;2.60;;
23702;SDS011;12030;50.376;8.762;2022-08-19T09:57:08;4.20;;;2.90;;
23702;SDS011;12030;50.376;8.762;2022-08-19T09:59:34;4.47;;;2.70;;
23702;SDS011;12030;50.376;8.762;2022-08-19T10:01:59;3.50;;;2.90;;
23702;SDS011;12030;50.376;8.762;2022-08-19T10:04:25;3.60;;;2.60;;
23702;SDS011;12030;50.376;8.762;2022-08-19T10:07:09;2.97;;;2.70;;
23702;SDS011;12030;50.376;8.762;2022-08-19T10:09:35;5.50;;;3.20;;
23702;SDS011;12030;50.376;8.762;2022-08-19T10:12:02;3.40;;;2.70;;
23702;SDS011;12030;50.376;8.762;2022-08-19T10:14:29;4.40;;;2.60;;
23702;SDS011;12030;50.376;8.762;2022-08-19T10:16:54;3.20;;;2.77;;
23702;SDS011;12030;50.376;8.762;2022-08-19T10:19:21;3.57;;;2.70;;
23702;SDS011;12030;50.376;8.762;2022-08-19T10:21:47;4.70;;;2.83;;
23702;SDS011;12030;50.376;8.762;2022-08-19T10:24:12;3.50;;;2.40;;
23702;SDS011;12030;50.376;8.762;2022-08-19T10:26:38;4.60;;;2.30;;
23702;SDS011;12030;50.376;8.762;2022-08-19T10:29:06;2.50;;;2.30;;
23702;SDS011;12030;50.376;8.762;2022-08-19T10:31:33;2.73;;;2.50;;
23702;SDS011;12030;50.376;8.762;2022-08-19T10:33:59;4.10;;;2.43;;
23702;SDS011;12030;50.376;8.762;2022-08-19T10:36:27;5.63;;;3.13;;
23702;SDS011;12030;50.376;8.762;2022-08-19T10:38:55;3.80;;;2.87;;
23702;SDS011;12030;50.376;8.762;2022-08-19T10:41:24;3.97;;;2.93;;
23702;SDS011;12030;50.376;8.762;2022-08-19T10:43:56;2.63;;;2.43;;
23702;SDS011;12030;50.376;8.762;2022-08-19T10:46:24;3.33;;;2.43;;
23702;SDS011;12030;50.376;8.762;2022-08-19T10:48:51;3.20;;;2.90;;
23702;SDS011;12030;50.376;8.762;2022-08-19T10:51:17;5.23;;;2.63;;
23702;SDS011;12030;50.376;8.762;2022-08-19T10:54:02;4.17;;;2.60;;
23702;SDS011;12030;50.376;8.762;2022-08-19T10:56:28;4.00;;;2.30;;
23702;SDS011;12030;50.376;8.762;2022-08-19T10:59:14;3.77;;;2.50;;
23702;SDS011;12030;50.376;8.762;2022-08-19T11:01:41;5.73;;;3.10;;
23702;SDS011;12030;50.376;8.762;2022-08-19T11:04:07;3.97;;;2.70;;
23702;SDS011;12030;50.376;8.762;2022-08-19T11:06:38;4.70;;;2.93;;
23702;SDS011;12030;50.376;8.762;2022-08-19T11:09:08;3.43;;;2.90;;
23702;SDS011;12030;50.376;8.762;2022-08-19T11:11:35;3.33;;;2.70;;
23702;SDS011;12030;50.376;8.762;2022-08-19T11:14:05;3.13;;;2.60;;
23702;SDS011;12030;50.376;8.762;2022-08-19T11:16:38;3.83;;;3.00;;
23702;SDS011;12030;50.376;8.762;2022-08-19T11:19:05;5.30;;;2.60;;
23702;SDS011;12030;50.376;8.762;2022-08-19T11:21:33;3.53;;;2.53;;
23702;SDS011;12030;50.376;8.762;2022-08-19T11:24:03;3.67;;;2.50;;
23702;SDS011;12030;50.376;8.762;2022-08-19T11:26:31;4.77;;;3.00;;
23702;SDS011;12030;50.376;8.762;2022-08-19T11:28:58;3.57;;;2.70;;
23702;SDS011;12030;50.376;8.762;2022-08-19T11:31:26;2.63;;;2.30;;
23702;SDS011;12030;50.376;8.762;2022-08-19T11:33:56;2.93;;;2.60;;
23702;SDS011;12030;50.376;8.762;2022-08-19T11:36:22;2.97;;;2.70;;
23702;SDS011;12030;50.376;8.762;2022-08-19T11:38:48;2.93;;;2.70;;
23702;SDS011;12030;50.376;8.762;2022-08-19T11:41:15;3.33;;;3.03;;
23702;SDS011;12030;50.376;8.762;2022-08-19T11:43:42;4.30;;;3.50;;
23702;SDS011;12030;50.376;8.762;2022-08-19T11:46:09;3.77;;;3.30;;
23702;SDS011;12030;50.376;8.762;2022-08-19T11:48:37;4.60;;;3.57;;
23702;SDS011;12030;50.376;8.762;2022-08-19T11:51:04;3.60;;;3.30;;
23702;SDS011;12030;50.376;8.762;2022-08-19T11:53:33;4.63;;;3.30;;
23702;SDS011;12030;50.376;8.762;2022-08-19T11:55:59;4.90;;;2.97;;
23702;SDS011;12030;50.376;8.762;2022-08-19T11:58:25;4.30;;;3.90;;
23702;SDS011;12030;50.376;8.762;2022-08-19T12:00:50;4.03;;;3.63;;
23702;SDS011;12030;50.376;8.762;2022-08-19T12:03:17;4.90;;;3.10;;
23702;SDS011;12030;50.376;8.762;2022-08-19T12:05:44;4.00;;;3.43;;
23702;SDS011;12030;50.376;8.762;2022-08-19T12:08:10;4.47;;;3.53;;
23702;SDS011;12030;50.376;8.762;2022-08-19T12:10:37;3.53;;;3.23;;
23702;SDS011;12030;50.376;8.762;2022-08-19T12:13:04;5.77;;;3.43;;
23702;SDS011;12030;50.376;8.762;2022-08-19T12:15:34;9.10;;;3.47;;
23702;SDS011;12030;50.376;8.762;2022-08-19T12:18:05;3.83;;;3.43;;
23702;SDS011;12030;50.376;8.762;2022-08-19T12:20:33;4.20;;;3.80;;
23702;SDS011;12030;50.376;8.762;2022-08-19T12:23:00;6.20;;;4.03;;
23702;SDS011;12030;50.376;8.762;2022-08-19T12:25:26;4.47;;;3.70;;
23702;SDS011;12030;50.376;8.762;2022-08-19T12:27:52;4.87;;;3.43;;
23702;SDS011;12030;50.376;8.762;2022-08-19T12:30:17;4.70;;;3.20;;
23702;SDS011;12030;50.376;8.762;2022-08-19T12:32:43;4.40;;;3.37;;
23702;SDS011;12030;50.376;8.762;2022-08-19T12:35:09;3.37;;;3.07;;
23702;SDS011;12030;50.376;8.762;2022-08-19T12:37:35;3.87;;;3.30;;
23702;SDS011;12030;50.376;8.762;2022-08-19T12:40:01;4.33;;;3.50;;
23702;SDS011;12030;50.376;8.762;2022-08-19T12:42:28;3.80;;;3.50;;
23702;SDS011;12030;50.376;8.762;2022-08-19T12:44:54;3.90;;;3.57;;
23702;SDS011;12030;50.376;8.762;2022-08-19T12:47:20;4.20;;;3.80;;
23702;SDS011;12030;50.376;8.762;2022-08-19T12:49:46;3.60;;;3.30;;
23702;SDS011;12030;50.376;8.762;2022-08-19T12:52:12;4.43;;;3.80;;
23702;SDS011;12030;50.376;8.762;2022-08-19T12:54:41;5.17;;;3.80;;
23702;SDS011;12030;50.376;8.762;2022-08-19T12:57:08;4.63;;;3.70;;
23702;SDS011;12030;50.376;8.762;2022-08-19T12:59:35;4.47;;;4.03;;
23702;SDS011;12030;50.376;8.762;2022-08-19T13:02:03;6.13;;;4.27;;
23702;SDS011;12030;50.376;8.762;2022-08-19T13:04:30;5.20;;;3.77;;
23702;SDS011;12030;50.376;8.762;2022-08-19T13:06:57;4.50;;;4.10;;
23702;SDS011;12030;50.376;8.762;2022-08-19T13:09:23;3.77;;;3.47;;
23702;SDS011;12030;50.376;8.762;2022-08-19T13:11:49;4.60;;;3.57;;
23702;SDS011;12030;50.376;8.762;2022-08-19T13:14:14;4.70;;;4.20;;
23702;SDS011;12030;50.376;8.762;2022-08-19T13:16:40;4.87;;;4.37;;
23702;SDS011;12030;50.376;8.762;2022-08-19T13:19:06;4.80;;;4.40;;
23702;SDS011;12030;50.376;8.762;2022-08-19T13:21:32;4.77;;;4.27;;
23702;SDS011;12030;50.376;8.762;2022-08-19T13:23:58;4.90;;;4.23;;
23702;SDS011;12030;50.376;8.762;2022-08-19T13:26:23;5.57;;;5.07;;
23702;SDS011;12030;50.376;8.762;2022-08-19T13:28:49;5.40;;;4.90;;
23702;SDS011;12030;50.376;8.762;2022-08-19T13:31:34;5.10;;;4.70;;
23702;SDS011;12030;50.376;8.762;2022-08-19T13:34:25;5.93;;;4.37;;
23702;SDS011;12030;50.376;8.762;2022-08-19T13:37:02;5.13;;;4.63;;
23702;SDS011;12030;50.376;8.762;2022-08-19T13:39:29;6.03;;;4.43;;
23702;SDS011;12030;50.376;8.762;2022-08-19T13:41:55;4.93;;;4.50;;
23702;SDS011;12030;50.376;8.762;2022-08-19T13:44:21;5.90;;;4.80;;
23702;SDS011;12030;50.376;8.762;2022-08-19T13:46:47;5.30;;;4.80;;
23702;SDS011;12030;50.376;8.762;2022-08-19T13:49:15;4.80;;;4.40;;
23702;SDS011;12030;50.376;8.762;2022-08-19T13:51:42;5.43;;;4.93;;
23702;SDS011;12030;50.376;8.762;2022-08-19T13:54:08;5.73;;;5.23;;
23702;SDS011;12030;50.376;8.762;2022-08-19T13:56:35;5.00;;;4.50;;
23702;SDS011;12030;50.376;8.762;2022-08-19T13:59:05;5.07;;;4.57;;
23702;SDS011;12030;50.376;8.762;2022-08-19T14:01:31;5.20;;;4.70;;
23702;SDS011;12030;50.376;8.762;2022-08-19T14:03:56;4.77;;;4.37;;
23702;SDS011;12030;50.376;8.762;2022-08-19T14:06:22;6.63;;;4.30;;
23702;SDS011;12030;50.376;8.762;2022-08-19T14:08:48;5.07;;;4.67;;
23702;SDS011;12030;50.376;8.762;2022-08-19T14:11:14;5.03;;;4.47;;
23702;SDS011;12030;50.376;8.762;2022-08-19T14:13:39;4.93;;;4.53;;
23702;SDS011;12030;50.376;8.762;2022-08-19T14:16:09;4.90;;;4.10;;
23702;SDS011;12030;50.376;8.762;2022-08-19T14:18:36;4.88;;;4.40;;
23702;SDS011;12030;50.376;8.762;2022-08-19T14:21:02;5.00;;;4.33;;
23702;SDS011;12030;50.376;8.762;2022-08-19T14:23:29;6.63;;;4.47;;
23702;SDS011;12030;50.376;8.762;2022-08-19T14:26:29;4.53;;;4.13;;
23702;SDS011;12030;50.376;8.762;2022-08-19T14:28:48;4.90;;;3.97;;
23702;SDS011;12030;50.376;8.762;2022-08-19T14:31:15;4.57;;;3.80;;
23702;SDS011;12030;50.376;8.762;2022-08-19T14:33:44;4.47;;;4.07;;
23702;SDS011;12030;50.376;8.762;2022-08-19T14:36:11;5.70;;;4.20;;
23702;SDS011;12030;50.376;8.762;2022-08-19T14:38:37;6.63;;;4.43;;
23702;SDS011;12030;50.376;8.762;2022-08-19T14:41:19;6.13;;;3.57;;
23702;SDS011;12030;50.376;8.762;2022-08-19T14:43:46;5.30;;;3.70;;
23702;SDS011;12030;50.376;8.762;2022-08-19T14:46:15;4.37;;;3.80;;
23702;SDS011;12030;50.376;8.762;2022-08-19T14:48:42;4.17;;;3.80;;
23702;SDS011;12030;50.376;8.762;2022-08-19T14:51:08;4.63;;;4.07;;
23702;SDS011;12030;50.376;8.762;2022-08-19T14:53:34;3.87;;;3.53;;
23702;SDS011;12030;50.376;8.762;2022-08-19T14:56:00;4.23;;;3.60;;
23702;SDS011;12030;50.376;8.762;2022-08-19T14:58:26;4.67;;;4.00;;